sensor_id;sensor_type;location;lat;lon;timestamp;P1;durP1;ratioP1;P2;durP2;ratioP2
62556;SDS011;48612;50.742;-1.226;2022-07-06T00:01:27;5.65;;;2.30;;
62556;SDS011;48612;50.742;-1.226;2022-07-06T00:03:53;5.57;;;2.30;;
62556;SDS011;48612;50.742;-1.226;2022-07-06T00:06:19;4.47;;;2.30;;
62556;SDS011;48612;50.742;-1.226;2022-07-06T00:08:44;3.25;;;2.30;;
62556;SDS011;48612;50.742;-1.226;2022-07-06T00:11:10;6.00;;;2.70;;
62556;SDS011;48612;50.742;-1.226;2022-07-06T00:13:36;10.27;;;2.63;;
62556;SDS011;48612;50.742;-1.226;2022-07-06T00:16:02;4.45;;;2.78;;
62556;SDS011;48612;50.742;-1.226;2022-07-06T00:18:29;5.07;;;2.83;;
62556;SDS011;48612;50.742;-1.226;2022-07-06T00:20:55;5.15;;;2.65;;
62556;SDS011;48612;50.742;-1.226;2022-07-06T00:23:24;6.88;;;2.97;;
62556;SDS011;48612;50.742;-1.226;2022-07-06T00:25:52;7.45;;;2.97;;
62556;SDS011;48612;50.742;-1.226;2022-07-06T00:28:18;4.60;;;2.72;;
62556;SDS011;48612;50.742;-1.226;2022-07-06T00:30:43;3.83;;;2.80;;
62556;SDS011;48612;50.742;-1.226;2022-07-06T00:33:09;5.03;;;3.13;;
62556;SDS011;48612;50.742;-1.226;2022-07-06T00:35:35;6.85;;;2.72;;
62556;SDS011;48612;50.742;-1.226;2022-07-06T00:38:01;5.28;;;3.20;;
62556;SDS011;48612;50.742;-1.226;2022-07-06T00:40:26;6.88;;;2.97;;
62556;SDS011;48612;50.742;-1.226;2022-07-06T00:42:52;3.85;;;2.75;;
62556;SDS011;48612;50.742;-1.226;2022-07-06T00:45:18;7.63;;;3.13;;
62556;SDS011;48612;50.742;-1.226;2022-07-06T00:47:44;6.55;;;3.08;;
62556;SDS011;48612;50.742;-1.226;2022-07-06T00:50:11;8.15;;;3.13;;
62556;SDS011;48612;50.742;-1.226;2022-07-06T00:52:50;8.32;;;3.33;;
62556;SDS011;48612;50.742;-1.226;2022-07-06T00:55:19;5.68;;;3.42;;
62556;SDS011;48612;50.742;-1.226;2022-07-06T00:57:46;8.63;;;3.50;;
62556;SDS011;48612;50.742;-1.226;2022-07-06T01:00:13;6.70;;;3.53;;
62556;SDS011;48612;50.742;-1.226;2022-07-06T01:02:41;14.05;;;3.40;;
62556;SDS011;48612;50.742;-1.226;2022-07-06T01:05:11;7.00;;;3.97;;
62556;SDS011;48612;50.742;-1.226;2022-07-06T01:07:38;10.30;;;4.18;;
62556;SDS011;48612;50.742;-1.226;2022-07-06T01:10:06;9.93;;;3.58;;
62556;SDS011;48612;50.742;-1.226;2022-07-06T01:12:34;6.88;;;3.30;;
62556;SDS011;48612;50.742;-1.226;2022-07-06T01:15:02;10.10;;;3.58;;
62556;SDS011;48612;50.742;-1.226;2022-07-06T01:17:32;5.43;;;3.10;;
62556;SDS011;48612;50.742;-1.226;2022-07-06T01:20:05;6.63;;;3.42;;
62556;SDS011;48612;50.742;-1.226;2022-07-06T01:22:36;10.32;;;3.78;;
62556;SDS011;48612;50.742;-1.226;2022-07-06T01:25:02;6.72;;;3.50;;
62556;SDS011;48612;50.742;-1.226;2022-07-06T01:27:29;21.52;;;5.03;;
62556;SDS011;48612;50.742;-1.226;2022-07-06T01:29:55;5.78;;;3.30;;
62556;SDS011;48612;50.742;-1.226;2022-07-06T01:32:21;5.57;;;3.38;;
62556;SDS011;48612;50.742;-1.226;2022-07-06T01:34:46;9.23;;;3.40;;
62556;SDS011;48612;50.742;-1.226;2022-07-06T01:37:12;8.13;;;4.00;;
62556;SDS011;48612;50.742;-1.226;2022-07-06T01:39:37;8.25;;;3.42;;
62556;SDS011;48612;50.742;-1.226;2022-07-06T01:42:02;4.63;;;3.22;;
62556;SDS011;48612;50.742;-1.226;2022-07-06T01:44:28;7.85;;;3.45;;
62556;SDS011;48612;50.742;-1.226;2022-07-06T01:46:54;5.78;;;3.70;;
62556;SDS011;48612;50.742;-1.226;2022-07-06T01:49:20;7.72;;;3.25;;
62556;SDS011;48612;50.742;-1.226;2022-07-06T01:51:45;8.45;;;3.30;;
62556;SDS011;48612;50.742;-1.226;2022-07-06T01:54:11;7.38;;;3.55;;
62556;SDS011;48612;50.742;-1.226;2022-07-06T01:56:37;6.40;;;3.28;;
62556;SDS011;48612;50.742;-1.226;2022-07-06T01:59:02;6.03;;;3.50;;
62556;SDS011;48612;50.742;-1.226;2022-07-06T02:01:28;7.53;;;2.88;;
62556;SDS011;48612;50.742;-1.226;2022-07-06T02:03:53;6.43;;;2.90;;
62556;SDS011;48612;50.742;-1.226;2022-07-06T02:06:18;5.00;;;3.08;;
62556;SDS011;48612;50.742;-1.226;2022-07-06T02:08:44;5.90;;;2.75;;
62556;SDS011;48612;50.742;-1.226;2022-07-06T02:11:12;6.40;;;3.22;;
62556;SDS011;48612;50.742;-1.226;2022-07-06T02:13:38;11.68;;;3.20;;
62556;SDS011;48612;50.742;-1.226;2022-07-06T02:16:04;5.10;;;2.90;;
62556;SDS011;48612;50.742;-1.226;2022-07-06T02:18:32;9.73;;;3.67;;
62556;SDS011;48612;50.742;-1.226;2022-07-06T02:20:58;5.40;;;3.05;;
62556;SDS011;48612;50.742;-1.226;2022-07-06T02:23:23;5.65;;;2.83;;
62556;SDS011;48612;50.742;-1.226;2022-07-06T02:25:49;6.57;;;2.90;;
62556;SDS011;48612;50.742;-1.226;2022-07-06T02:28:14;4.55;;;2.95;;
62556;SDS011;48612;50.742;-1.226;2022-07-06T02:30:39;8.68;;;3.03;;
62556;SDS011;48612;50.742;-1.226;2022-07-06T02:33:05;9.75;;;3.13;;
62556;SDS011;48612;50.742;-1.226;2022-07-06T02:35:30;4.60;;;3.05;;
62556;SDS011;48612;50.742;-1.226;2022-07-06T02:37:56;4.97;;;2.83;;
62556;SDS011;48612;50.742;-1.226;2022-07-06T02:40:21;4.40;;;3.15;;
62556;SDS011;48612;50.742;-1.226;2022-07-06T02:42:47;7.07;;;2.80;;
62556;SDS011;48612;50.742;-1.226;2022-07-06T02:45:12;5.25;;;3.10;;
62556;SDS011;48612;50.742;-1.226;2022-07-06T02:47:38;3.95;;;2.42;;
62556;SDS011;48612;50.742;-1.226;2022-07-06T02:50:04;5.32;;;2.40;;
62556;SDS011;48612;50.742;-1.226;2022-07-06T02:52:30;4.15;;;2.60;;
62556;SDS011;48612;50.742;-1.226;2022-07-06T02:54:56;6.05;;;3.00;;
62556;SDS011;48612;50.742;-1.226;2022-07-06T02:57:21;6.55;;;2.80;;
62556;SDS011;48612;50.742;-1.226;2022-07-06T02:59:47;5.55;;;2.47;;
62556;SDS011;48612;50.742;-1.226;2022-07-06T03:02:14;5.03;;;2.35;;
62556;SDS011;48612;50.742;-1.226;2022-07-06T03:04:43;7.60;;;3.28;;
62556;SDS011;48612;50.742;-1.226;2022-07-06T03:07:09;5.75;;;2.45;;
62556;SDS011;48612;50.742;-1.226;2022-07-06T03:09:35;2.83;;;2.40;;
62556;SDS011;48612;50.742;-1.226;2022-07-06T03:12:00;3.75;;;2.45;;
62556;SDS011;48612;50.742;-1.226;2022-07-06T03:14:26;3.45;;;2.42;;
62556;SDS011;48612;50.742;-1.226;2022-07-06T03:16:51;4.15;;;2.55;;
62556;SDS011;48612;50.742;-1.226;2022-07-06T03:19:17;4.22;;;2.60;;
62556;SDS011;48612;50.742;-1.226;2022-07-06T03:21:43;5.13;;;2.83;;
62556;SDS011;48612;50.742;-1.226;2022-07-06T03:24:08;3.72;;;2.55;;
62556;SDS011;48612;50.742;-1.226;2022-07-06T03:26:34;6.93;;;3.08;;
62556;SDS011;48612;50.742;-1.226;2022-07-06T03:29:00;4.88;;;2.60;;
62556;SDS011;48612;50.742;-1.226;2022-07-06T03:31:26;9.70;;;2.92;;
62556;SDS011;48612;50.742;-1.226;2022-07-06T03:33:51;5.15;;;2.50;;
62556;SDS011;48612;50.742;-1.226;2022-07-06T03:36:17;4.93;;;2.90;;
62556;SDS011;48612;50.742;-1.226;2022-07-06T03:38:43;6.93;;;3.20;;
62556;SDS011;48612;50.742;-1.226;2022-07-06T03:41:08;4.90;;;2.72;;
62556;SDS011;48612;50.742;-1.226;2022-07-06T03:43:34;5.32;;;3.15;;
62556;SDS011;48612;50.742;-1.226;2022-07-06T03:45:59;4.82;;;2.88;;
62556;SDS011;48612;50.742;-1.226;2022-07-06T03:48:25;4.78;;;3.45;;
62556;SDS011;48612;50.742;-1.226;2022-07-06T03:50:50;6.68;;;2.83;;
62556;SDS011;48612;50.742;-1.226;2022-07-06T03:53:16;5.53;;;2.90;;
62556;SDS011;48612;50.742;-1.226;2022-07-06T03:55:41;5.28;;;3.35;;
62556;SDS011;48612;50.742;-1.226;2022-07-06T03:58:07;5.72;;;3.22;;
62556;SDS011;48612;50.742;-1.226;2022-07-06T04:00:32;7.70;;;3.58;;
62556;SDS011;48612;50.742;-1.226;2022-07-06T04:02:59;8.07;;;2.90;;
62556;SDS011;48612;50.742;-1.226;2022-07-06T04:05:25;6.05;;;3.05;;
62556;SDS011;48612;50.742;-1.226;2022-07-06T04:07:51;4.90;;;3.20;;
62556;SDS011;48612;50.742;-1.226;2022-07-06T04:10:16;6.25;;;3.30;;
62556;SDS011;48612;50.742;-1.226;2022-07-06T04:12:42;7.97;;;3.40;;
62556;SDS011;48612;50.742;-1.226;2022-07-06T04:15:09;7.18;;;3.08;;
62556;SDS011;48612;50.742;-1.226;2022-07-06T04:17:35;5.03;;;3.50;;
62556;SDS011;48612;50.742;-1.226;2022-07-06T04:20:16;6.72;;;3.40;;
62556;SDS011;48612;50.742;-1.226;2022-07-06T04:22:42;5.93;;;3.33;;
62556;SDS011;48612;50.742;-1.226;2022-07-06T04:25:08;8.27;;;3.65;;
62556;SDS011;48612;50.742;-1.226;2022-07-06T04:27:34;6.85;;;3.47;;
62556;SDS011;48612;50.742;-1.226;2022-07-06T04:30:00;4.80;;;3.05;;
62556;SDS011;48612;50.742;-1.226;2022-07-06T04:32:26;5.28;;;3.22;;
62556;SDS011;48612;50.742;-1.226;2022-07-06T04:34:51;7.35;;;3.65;;
62556;SDS011;48612;50.742;-1.226;2022-07-06T04:37:17;10.38;;;3.80;;
62556;SDS011;48612;50.742;-1.226;2022-07-06T04:39:42;5.35;;;3.70;;
62556;SDS011;48612;50.742;-1.226;2022-07-06T04:42:08;10.05;;;4.15;;
62556;SDS011;48612;50.742;-1.226;2022-07-06T04:44:33;8.82;;;4.03;;
62556;SDS011;48612;50.742;-1.226;2022-07-06T04:46:59;8.57;;;3.60;;
62556;SDS011;48612;50.742;-1.226;2022-07-06T04:49:25;5.95;;;3.20;;
62556;SDS011;48612;50.742;-1.226;2022-07-06T04:51:51;5.75;;;3.80;;
62556;SDS011;48612;50.742;-1.226;2022-07-06T04:54:16;6.22;;;4.05;;
62556;SDS011;48612;50.742;-1.226;2022-07-06T04:56:42;13.80;;;3.90;;
62556;SDS011;48612;50.742;-1.226;2022-07-06T04:59:08;10.95;;;3.97;;
62556;SDS011;48612;50.742;-1.226;2022-07-06T05:01:33;6.07;;;3.63;;
62556;SDS011;48612;50.742;-1.226;2022-07-06T05:03:59;6.75;;;3.78;;
62556;SDS011;48612;50.742;-1.226;2022-07-06T05:06:24;8.55;;;3.70;;
62556;SDS011;48612;50.742;-1.226;2022-07-06T05:08:50;6.57;;;3.67;;
62556;SDS011;48612;50.742;-1.226;2022-07-06T05:11:15;6.97;;;4.32;;
62556;SDS011;48612;50.742;-1.226;2022-07-06T05:13:41;7.55;;;4.10;;
62556;SDS011;48612;50.742;-1.226;2022-07-06T05:16:07;9.73;;;4.00;;
62556;SDS011;48612;50.742;-1.226;2022-07-06T05:18:32;9.60;;;4.50;;
62556;SDS011;48612;50.742;-1.226;2022-07-06T05:20:58;11.05;;;4.38;;
62556;SDS011;48612;50.742;-1.226;2022-07-06T05:23:23;6.78;;;4.07;;
62556;SDS011;48612;50.742;-1.226;2022-07-06T05:25:49;8.95;;;4.57;;
62556;SDS011;48612;50.742;-1.226;2022-07-06T05:28:14;6.93;;;4.10;;
62556;SDS011;48612;50.742;-1.226;2022-07-06T05:30:40;10.13;;;4.55;;
62556;SDS011;48612;50.742;-1.226;2022-07-06T05:33:05;7.18;;;4.45;;
62556;SDS011;48612;50.742;-1.226;2022-07-06T05:35:31;9.07;;;4.18;;
62556;SDS011;48612;50.742;-1.226;2022-07-06T05:37:56;7.72;;;4.05;;
62556;SDS011;48612;50.742;-1.226;2022-07-06T05:40:21;7.30;;;4.22;;
62556;SDS011;48612;50.742;-1.226;2022-07-06T05:42:47;8.10;;;3.83;;
62556;SDS011;48612;50.742;-1.226;2022-07-06T05:45:13;7.97;;;4.32;;
62556;SDS011;48612;50.742;-1.226;2022-07-06T05:47:39;5.35;;;3.60;;
62556;SDS011;48612;50.742;-1.226;2022-07-06T05:50:23;7.75;;;3.22;;
62556;SDS011;48612;50.742;-1.226;2022-07-06T05:52:58;6.53;;;3.20;;
62556;SDS011;48612;50.742;-1.226;2022-07-06T05:55:25;4.10;;;2.65;;
62556;SDS011;48612;50.742;-1.226;2022-07-06T05:57:51;6.68;;;3.25;;
62556;SDS011;48612;50.742;-1.226;2022-07-06T06:00:20;5.63;;;3.38;;
62556;SDS011;48612;50.742;-1.226;2022-07-06T06:02:46;3.90;;;2.20;;
62556;SDS011;48612;50.742;-1.226;2022-07-06T06:05:12;4.93;;;2.63;;
62556;SDS011;48612;50.742;-1.226;2022-07-06T06:07:39;3.42;;;2.33;;
62556;SDS011;48612;50.742;-1.226;2022-07-06T06:10:08;4.35;;;2.53;;
62556;SDS011;48612;50.742;-1.226;2022-07-06T06:12:37;4.30;;;2.28;;
62556;SDS011;48612;50.742;-1.226;2022-07-06T06:15:03;5.40;;;2.42;;
62556;SDS011;48612;50.742;-1.226;2022-07-06T06:17:29;2.95;;;1.80;;
62556;SDS011;48612;50.742;-1.226;2022-07-06T06:19:55;7.65;;;2.20;;
62556;SDS011;48612;50.742;-1.226;2022-07-06T06:22:22;5.32;;;2.20;;
62556;SDS011;48612;50.742;-1.226;2022-07-06T06:24:47;2.05;;;1.67;;
62556;SDS011;48612;50.742;-1.226;2022-07-06T06:27:13;4.03;;;2.20;;
62556;SDS011;48612;50.742;-1.226;2022-07-06T06:29:39;5.75;;;2.40;;
62556;SDS011;48612;50.742;-1.226;2022-07-06T06:32:06;3.72;;;2.50;;
62556;SDS011;48612;50.742;-1.226;2022-07-06T06:34:32;3.35;;;2.20;;
62556;SDS011;48612;50.742;-1.226;2022-07-06T06:36:57;5.50;;;2.50;;
62556;SDS011;48612;50.742;-1.226;2022-07-06T06:39:23;2.40;;;1.92;;
62556;SDS011;48612;50.742;-1.226;2022-07-06T06:41:48;2.58;;;2.03;;
62556;SDS011;48612;50.742;-1.226;2022-07-06T06:44:14;7.38;;;2.15;;
62556;SDS011;48612;50.742;-1.226;2022-07-06T06:46:40;4.15;;;1.92;;
62556;SDS011;48612;50.742;-1.226;2022-07-06T06:51:51;5.03;;;2.33;;
62556;SDS011;48612;50.742;-1.226;2022-07-06T06:54:17;3.20;;;2.30;;
62556;SDS011;48612;50.742;-1.226;2022-07-06T06:56:42;3.17;;;2.40;;
62556;SDS011;48612;50.742;-1.226;2022-07-06T06:59:08;3.75;;;2.20;;
62556;SDS011;48612;50.742;-1.226;2022-07-06T07:01:34;5.78;;;2.00;;
62556;SDS011;48612;50.742;-1.226;2022-07-06T07:04:00;4.03;;;2.10;;
62556;SDS011;48612;50.742;-1.226;2022-07-06T07:06:26;2.58;;;2.08;;
62556;SDS011;48612;50.742;-1.226;2022-07-06T07:08:52;3.33;;;2.05;;
62556;SDS011;48612;50.742;-1.226;2022-07-06T07:11:18;3.78;;;2.03;;
62556;SDS011;48612;50.742;-1.226;2022-07-06T07:13:44;6.90;;;2.03;;
62556;SDS011;48612;50.742;-1.226;2022-07-06T07:16:09;5.40;;;2.35;;
62556;SDS011;48612;50.742;-1.226;2022-07-06T07:18:36;4.78;;;2.25;;
62556;SDS011;48612;50.742;-1.226;2022-07-06T07:21:02;4.28;;;2.33;;
62556;SDS011;48612;50.742;-1.226;2022-07-06T07:23:28;3.15;;;1.75;;
62556;SDS011;48612;50.742;-1.226;2022-07-06T07:25:53;4.82;;;2.50;;
62556;SDS011;48612;50.742;-1.226;2022-07-06T07:28:20;7.30;;;2.80;;
62556;SDS011;48612;50.742;-1.226;2022-07-06T07:30:45;4.30;;;2.30;;
62556;SDS011;48612;50.742;-1.226;2022-07-06T07:33:11;6.93;;;2.20;;
62556;SDS011;48612;50.742;-1.226;2022-07-06T07:35:36;4.10;;;2.30;;
62556;SDS011;48612;50.742;-1.226;2022-07-06T07:38:02;2.50;;;1.88;;
62556;SDS011;48612;50.742;-1.226;2022-07-06T07:40:28;3.20;;;2.00;;
62556;SDS011;48612;50.742;-1.226;2022-07-06T07:42:54;2.35;;;1.90;;
62556;SDS011;48612;50.742;-1.226;2022-07-06T07:45:20;44.13;;;11.13;;
62556;SDS011;48612;50.742;-1.226;2022-07-06T07:47:46;61.08;;;10.02;;
62556;SDS011;48612;50.742;-1.226;2022-07-06T07:50:11;4.40;;;1.73;;
62556;SDS011;48612;50.742;-1.226;2022-07-06T07:52:37;5.32;;;2.10;;
62556;SDS011;48612;50.742;-1.226;2022-07-06T07:55:03;5.72;;;1.98;;
62556;SDS011;48612;50.742;-1.226;2022-07-06T07:57:29;8.75;;;2.45;;
62556;SDS011;48612;50.742;-1.226;2022-07-06T07:59:55;3.92;;;1.88;;
62556;SDS011;48612;50.742;-1.226;2022-07-06T08:02:20;14.68;;;3.67;;
62556;SDS011;48612;50.742;-1.226;2022-07-06T08:04:46;4.28;;;2.00;;
62556;SDS011;48612;50.742;-1.226;2022-07-06T08:07:11;5.72;;;2.00;;
62556;SDS011;48612;50.742;-1.226;2022-07-06T08:09:37;8.43;;;3.33;;
62556;SDS011;48612;50.742;-1.226;2022-07-06T08:12:03;10.23;;;3.40;;
62556;SDS011;48612;50.742;-1.226;2022-07-06T08:14:29;3.58;;;2.40;;
62556;SDS011;48612;50.742;-1.226;2022-07-06T08:16:54;4.03;;;2.10;;
62556;SDS011;48612;50.742;-1.226;2022-07-06T08:19:20;4.57;;;2.97;;
62556;SDS011;48612;50.742;-1.226;2022-07-06T08:21:45;23.98;;;7.13;;
62556;SDS011;48612;50.742;-1.226;2022-07-06T08:24:11;28.15;;;5.88;;
62556;SDS011;48612;50.742;-1.226;2022-07-06T08:26:36;40.60;;;8.10;;
62556;SDS011;48612;50.742;-1.226;2022-07-06T08:29:02;13.75;;;3.75;;
62556;SDS011;48612;50.742;-1.226;2022-07-06T08:31:28;8.68;;;3.15;;
62556;SDS011;48612;50.742;-1.226;2022-07-06T08:33:54;2.85;;;1.77;;
62556;SDS011;48612;50.742;-1.226;2022-07-06T08:36:21;3.28;;;2.20;;
62556;SDS011;48612;50.742;-1.226;2022-07-06T08:38:47;4.22;;;1.85;;
62556;SDS011;48612;50.742;-1.226;2022-07-06T08:41:14;5.72;;;1.67;;
62556;SDS011;48612;50.742;-1.226;2022-07-06T08:43:41;17.65;;;2.53;;
62556;SDS011;48612;50.742;-1.226;2022-07-06T08:46:07;4.13;;;2.35;;
62556;SDS011;48612;50.742;-1.226;2022-07-06T08:48:35;5.07;;;1.80;;
62556;SDS011;48612;50.742;-1.226;2022-07-06T08:51:02;2.50;;;1.27;;
62556;SDS011;48612;50.742;-1.226;2022-07-06T08:53:30;4.25;;;1.10;;
62556;SDS011;48612;50.742;-1.226;2022-07-06T08:55:55;2.60;;;1.95;;
62556;SDS011;48612;50.742;-1.226;2022-07-06T08:58:23;3.28;;;1.20;;
62556;SDS011;48612;50.742;-1.226;2022-07-06T09:00:49;1.40;;;1.30;;
62556;SDS011;48612;50.742;-1.226;2022-07-06T09:03:15;1.70;;;1.60;;
62556;SDS011;48612;50.742;-1.226;2022-07-06T09:05:40;1.55;;;1.40;;
62556;SDS011;48612;50.742;-1.226;2022-07-06T09:08:11;1.55;;;1.45;;
62556;SDS011;48612;50.742;-1.226;2022-07-06T09:10:38;3.80;;;1.50;;
62556;SDS011;48612;50.742;-1.226;2022-07-06T09:13:04;3.88;;;1.80;;
62556;SDS011;48612;50.742;-1.226;2022-07-06T09:15:33;5.28;;;1.88;;
62556;SDS011;48612;50.742;-1.226;2022-07-06T09:17:59;2.15;;;1.45;;
62556;SDS011;48612;50.742;-1.226;2022-07-06T09:20:25;2.35;;;1.70;;
62556;SDS011;48612;50.742;-1.226;2022-07-06T09:22:53;7.43;;;2.00;;
62556;SDS011;48612;50.742;-1.226;2022-07-06T09:25:24;2.95;;;1.42;;
62556;SDS011;48612;50.742;-1.226;2022-07-06T09:27:50;4.70;;;1.15;;
62556;SDS011;48612;50.742;-1.226;2022-07-06T09:30:19;1.92;;;1.50;;
62556;SDS011;48612;50.742;-1.226;2022-07-06T09:32:46;1.23;;;1.13;;
62556;SDS011;48612;50.742;-1.226;2022-07-06T09:40:40;3.75;;;1.48;;
62556;SDS011;48612;50.742;-1.226;2022-07-06T09:43:23;2.15;;;1.42;;
62556;SDS011;48612;50.742;-1.226;2022-07-06T09:45:53;1.48;;;1.23;;
62556;SDS011;48612;50.742;-1.226;2022-07-06T09:48:24;3.03;;;1.58;;
62556;SDS011;48612;50.742;-1.226;2022-07-06T09:50:54;1.60;;;1.40;;
62556;SDS011;48612;50.742;-1.226;2022-07-06T09:53:23;2.90;;;1.48;;
62556;SDS011;48612;50.742;-1.226;2022-07-06T09:55:51;1.58;;;1.48;;
62556;SDS011;48612;50.742;-1.226;2022-07-06T09:58:20;4.72;;;1.55;;
62556;SDS011;48612;50.742;-1.226;2022-07-06T10:00:46;4.05;;;1.05;;
62556;SDS011;48612;50.742;-1.226;2022-07-06T10:03:13;1.40;;;1.30;;
62556;SDS011;48612;50.742;-1.226;2022-07-06T10:05:41;1.67;;;0.95;;
62556;SDS011;48612;50.742;-1.226;2022-07-06T10:08:08;4.03;;;1.35;;
62556;SDS011;48612;50.742;-1.226;2022-07-06T10:10:34;2.10;;;1.60;;
62556;SDS011;48612;50.742;-1.226;2022-07-06T10:13:02;4.43;;;1.38;;
62556;SDS011;48612;50.742;-1.226;2022-07-06T10:15:31;3.90;;;1.58;;
62556;SDS011;48612;50.742;-1.226;2022-07-06T10:17:59;2.20;;;1.23;;
62556;SDS011;48612;50.742;-1.226;2022-07-06T10:20:30;4.88;;;1.48;;
62556;SDS011;48612;50.742;-1.226;2022-07-06T10:23:05;2.28;;;1.13;;
62556;SDS011;48612;50.742;-1.226;2022-07-06T10:25:32;9.48;;;1.40;;
62556;SDS011;48612;50.742;-1.226;2022-07-06T10:27:58;6.82;;;1.27;;
62556;SDS011;48612;50.742;-1.226;2022-07-06T10:30:25;1.10;;;1.10;;
62556;SDS011;48612;50.742;-1.226;2022-07-06T10:32:54;10.60;;;1.45;;
62556;SDS011;48612;50.742;-1.226;2022-07-06T10:35:40;1.63;;;1.30;;
62556;SDS011;48612;50.742;-1.226;2022-07-06T10:38:31;1.20;;;1.08;;
62556;SDS011;48612;50.742;-1.226;2022-07-06T10:41:01;2.53;;;1.67;;
62556;SDS011;48612;50.742;-1.226;2022-07-06T10:43:55;2.75;;;1.50;;
62556;SDS011;48612;50.742;-1.226;2022-07-06T10:46:23;2.13;;;1.23;;
62556;SDS011;48612;50.742;-1.226;2022-07-06T10:48:54;3.95;;;1.30;;
62556;SDS011;48612;50.742;-1.226;2022-07-06T10:51:23;10.25;;;1.45;;
62556;SDS011;48612;50.742;-1.226;2022-07-06T10:53:59;6.80;;;1.88;;
62556;SDS011;48612;50.742;-1.226;2022-07-06T10:56:42;2.42;;;1.67;;
62556;SDS011;48612;50.742;-1.226;2022-07-06T10:59:18;8.85;;;4.13;;
62556;SDS011;48612;50.742;-1.226;2022-07-06T11:05:39;2.28;;;1.95;;
62556;SDS011;48612;50.742;-1.226;2022-07-06T11:08:10;2.85;;;1.90;;
62556;SDS011;48612;50.742;-1.226;2022-07-06T11:10:48;2.70;;;1.40;;
62556;SDS011;48612;50.742;-1.226;2022-07-06T11:13:29;5.00;;;1.55;;
62556;SDS011;48612;50.742;-1.226;2022-07-06T11:16:00;12.15;;;2.13;;
62556;SDS011;48612;50.742;-1.226;2022-07-06T11:18:28;3.50;;;1.58;;
62556;SDS011;48612;50.742;-1.226;2022-07-06T11:24:04;7.43;;;1.70;;
62556;SDS011;48612;50.742;-1.226;2022-07-06T11:26:51;6.55;;;2.35;;
62556;SDS011;48612;50.742;-1.226;2022-07-06T11:29:18;6.15;;;1.38;;
62556;SDS011;48612;50.742;-1.226;2022-07-06T11:31:47;6.18;;;2.83;;
62556;SDS011;48612;50.742;-1.226;2022-07-06T11:34:18;2.05;;;1.45;;
62556;SDS011;48612;50.742;-1.226;2022-07-06T11:37:08;3.67;;;1.70;;
62556;SDS011;48612;50.742;-1.226;2022-07-06T11:39:43;4.43;;;2.38;;
62556;SDS011;48612;50.742;-1.226;2022-07-06T11:42:11;36.88;;;3.78;;
62556;SDS011;48612;50.742;-1.226;2022-07-06T11:44:43;3.70;;;1.90;;
62556;SDS011;48612;50.742;-1.226;2022-07-06T11:47:09;5.45;;;1.33;;
62556;SDS011;48612;50.742;-1.226;2022-07-06T11:49:39;14.48;;;1.83;;
62556;SDS011;48612;50.742;-1.226;2022-07-06T11:52:10;19.38;;;2.78;;
62556;SDS011;48612;50.742;-1.226;2022-07-06T11:54:37;3.13;;;1.85;;
62556;SDS011;48612;50.742;-1.226;2022-07-06T11:57:03;3.78;;;1.60;;
62556;SDS011;48612;50.742;-1.226;2022-07-06T12:01:58;1.90;;;1.80;;
62556;SDS011;48612;50.742;-1.226;2022-07-06T12:04:29;2.17;;;1.90;;
62556;SDS011;48612;50.742;-1.226;2022-07-06T12:06:59;4.93;;;2.08;;
62556;SDS011;48612;50.742;-1.226;2022-07-06T12:09:29;1.92;;;1.73;;
62556;SDS011;48612;50.742;-1.226;2022-07-06T12:11:58;4.88;;;1.75;;
62556;SDS011;48612;50.742;-1.226;2022-07-06T12:14:27;8.02;;;2.10;;
62556;SDS011;48612;50.742;-1.226;2022-07-06T12:16:53;4.10;;;1.92;;
62556;SDS011;48612;50.742;-1.226;2022-07-06T12:19:21;3.33;;;1.92;;
62556;SDS011;48612;50.742;-1.226;2022-07-06T12:21:48;3.33;;;2.80;;
62556;SDS011;48612;50.742;-1.226;2022-07-06T12:24:21;3.95;;;2.30;;
62556;SDS011;48612;50.742;-1.226;2022-07-06T12:26:48;3.03;;;1.90;;
62556;SDS011;48612;50.742;-1.226;2022-07-06T12:29:14;5.32;;;2.30;;
62556;SDS011;48612;50.742;-1.226;2022-07-06T12:31:42;3.55;;;2.50;;
62556;SDS011;48612;50.742;-1.226;2022-07-06T12:36:43;5.85;;;2.60;;
62556;SDS011;48612;50.742;-1.226;2022-07-06T12:39:11;5.38;;;1.95;;
62556;SDS011;48612;50.742;-1.226;2022-07-06T12:41:42;2.75;;;2.20;;
62556;SDS011;48612;50.742;-1.226;2022-07-06T12:44:18;4.20;;;2.10;;
62556;SDS011;48612;50.742;-1.226;2022-07-06T12:46:48;6.43;;;1.90;;
62556;SDS011;48612;50.742;-1.226;2022-07-06T12:49:16;7.15;;;2.60;;
62556;SDS011;48612;50.742;-1.226;2022-07-06T12:51:52;3.28;;;2.15;;
62556;SDS011;48612;50.742;-1.226;2022-07-06T12:54:32;3.25;;;2.10;;
62556;SDS011;48612;50.742;-1.226;2022-07-06T12:57:09;5.78;;;2.22;;
62556;SDS011;48612;50.742;-1.226;2022-07-06T13:02:20;4.25;;;1.75;;
62556;SDS011;48612;50.742;-1.226;2022-07-06T13:05:07;4.88;;;1.92;;
62556;SDS011;48612;50.742;-1.226;2022-07-06T13:07:35;5.28;;;2.45;;
62556;SDS011;48612;50.742;-1.226;2022-07-06T13:10:03;4.75;;;1.98;;
62556;SDS011;48612;50.742;-1.226;2022-07-06T13:12:32;2.45;;;1.58;;
62556;SDS011;48612;50.742;-1.226;2022-07-06T13:14:58;3.40;;;1.77;;
62556;SDS011;48612;50.742;-1.226;2022-07-06T13:17:24;6.60;;;1.73;;
62556;SDS011;48612;50.742;-1.226;2022-07-06T13:19:49;6.28;;;1.95;;
62556;SDS011;48612;50.742;-1.226;2022-07-06T13:22:15;2.65;;;1.60;;
62556;SDS011;48612;50.742;-1.226;2022-07-06T13:24:41;3.15;;;2.10;;
62556;SDS011;48612;50.742;-1.226;2022-07-06T13:27:07;6.72;;;1.88;;
62556;SDS011;48612;50.742;-1.226;2022-07-06T13:29:33;6.05;;;2.25;;
62556;SDS011;48612;50.742;-1.226;2022-07-06T13:31:59;13.25;;;2.22;;
62556;SDS011;48612;50.742;-1.226;2022-07-06T13:34:25;10.27;;;2.10;;
62556;SDS011;48612;50.742;-1.226;2022-07-06T13:36:51;4.43;;;1.70;;
62556;SDS011;48612;50.742;-1.226;2022-07-06T13:39:17;3.38;;;2.17;;
62556;SDS011;48612;50.742;-1.226;2022-07-06T13:41:43;2.55;;;1.80;;
62556;SDS011;48612;50.742;-1.226;2022-07-06T13:44:09;1.67;;;1.30;;
62556;SDS011;48612;50.742;-1.226;2022-07-06T13:46:36;1.70;;;1.60;;
62556;SDS011;48612;50.742;-1.226;2022-07-06T13:49:03;1.67;;;1.58;;
62556;SDS011;48612;50.742;-1.226;2022-07-06T13:51:29;3.42;;;1.63;;
62556;SDS011;48612;50.742;-1.226;2022-07-06T13:53:56;1.95;;;1.50;;
62556;SDS011;48612;50.742;-1.226;2022-07-06T13:56:22;1.48;;;1.38;;
62556;SDS011;48612;50.742;-1.226;2022-07-06T13:58:47;2.15;;;1.45;;
62556;SDS011;48612;50.742;-1.226;2022-07-06T14:01:13;2.08;;;1.88;;
62556;SDS011;48612;50.742;-1.226;2022-07-06T14:03:38;2.30;;;1.73;;
62556;SDS011;48612;50.742;-1.226;2022-07-06T14:06:07;5.30;;;1.60;;
62556;SDS011;48612;50.742;-1.226;2022-07-06T14:08:36;2.85;;;1.48;;
62556;SDS011;48612;50.742;-1.226;2022-07-06T14:11:03;8.38;;;1.95;;
62556;SDS011;48612;50.742;-1.226;2022-07-06T14:13:30;2.95;;;1.55;;
62556;SDS011;48612;50.742;-1.226;2022-07-06T14:15:56;3.88;;;1.60;;
62556;SDS011;48612;50.742;-1.226;2022-07-06T14:18:22;6.00;;;1.80;;
62556;SDS011;48612;50.742;-1.226;2022-07-06T14:20:48;5.35;;;1.70;;
62556;SDS011;48612;50.742;-1.226;2022-07-06T14:23:15;6.70;;;1.60;;
62556;SDS011;48612;50.742;-1.226;2022-07-06T14:25:41;11.75;;;2.92;;
62556;SDS011;48612;50.742;-1.226;2022-07-06T14:28:07;4.38;;;1.92;;
62556;SDS011;48612;50.742;-1.226;2022-07-06T14:30:34;8.75;;;2.10;;
62556;SDS011;48612;50.742;-1.226;2022-07-06T14:33:04;1.92;;;1.40;;
62556;SDS011;48612;50.742;-1.226;2022-07-06T14:35:38;7.53;;;1.75;;
62556;SDS011;48612;50.742;-1.226;2022-07-06T14:38:07;3.60;;;1.98;;
62556;SDS011;48612;50.742;-1.226;2022-07-06T14:40:33;4.10;;;1.70;;
62556;SDS011;48612;50.742;-1.226;2022-07-06T14:42:59;5.18;;;1.85;;
62556;SDS011;48612;50.742;-1.226;2022-07-06T14:45:26;3.42;;;1.60;;
62556;SDS011;48612;50.742;-1.226;2022-07-06T14:47:51;4.00;;;1.63;;
62556;SDS011;48612;50.742;-1.226;2022-07-06T14:50:17;3.05;;;1.55;;
62556;SDS011;48612;50.742;-1.226;2022-07-06T14:52:44;4.43;;;1.50;;
62556;SDS011;48612;50.742;-1.226;2022-07-06T14:55:09;17.65;;;1.90;;
62556;SDS011;48612;50.742;-1.226;2022-07-06T14:57:35;13.10;;;1.77;;